sensor_id;sensor_type;location;lat;lon;timestamp;P1;durP1;ratioP1;P2;durP2;ratioP2
3253;SDS011;1639;42.804;23.342;2022-07-29T00:01:42;7.63;;;4.43;;
3253;SDS011;1639;42.804;23.342;2022-07-29T00:04:08;11.70;;;4.93;;
3253;SDS011;1639;42.804;23.342;2022-07-29T00:06:33;8.47;;;3.63;;
3253;SDS011;1639;42.804;23.342;2022-07-29T00:08:58;9.43;;;4.30;;
3253;SDS011;1639;42.804;23.342;2022-07-29T00:11:24;13.40;;;4.13;;
3253;SDS011;1639;42.804;23.342;2022-07-29T00:13:49;24.53;;;5.50;;
3253;SDS011;1639;42.804;23.342;2022-07-29T00:16:14;10.00;;;5.40;;
3253;SDS011;1639;42.804;23.342;2022-07-29T00:18:40;5.97;;;3.20;;
3253;SDS011;1639;42.804;23.342;2022-07-29T00:21:05;12.70;;;3.97;;
3253;SDS011;1639;42.804;23.342;2022-07-29T00:23:31;16.23;;;5.03;;
3253;SDS011;1639;42.804;23.342;2022-07-29T00:25:56;13.30;;;3.70;;
3253;SDS011;1639;42.804;23.342;2022-07-29T00:28:21;9.13;;;4.27;;
3253;SDS011;1639;42.804;23.342;2022-07-29T00:30:47;11.30;;;3.93;;
3253;SDS011;1639;42.804;23.342;2022-07-29T00:33:12;10.57;;;5.67;;
3253;SDS011;1639;42.804;23.342;2022-07-29T00:35:38;6.07;;;3.57;;
3253;SDS011;1639;42.804;23.342;2022-07-29T00:38:10;8.60;;;5.10;;
3253;SDS011;1639;42.804;23.342;2022-07-29T00:40:36;16.73;;;6.50;;
3253;SDS011;1639;42.804;23.342;2022-07-29T00:43:02;15.87;;;5.17;;
3253;SDS011;1639;42.804;23.342;2022-07-29T00:45:27;8.73;;;5.00;;
3253;SDS011;1639;42.804;23.342;2022-07-29T00:47:54;10.93;;;5.57;;
3253;SDS011;1639;42.804;23.342;2022-07-29T00:50:20;8.43;;;4.77;;
3253;SDS011;1639;42.804;23.342;2022-07-29T00:52:45;11.23;;;4.70;;
3253;SDS011;1639;42.804;23.342;2022-07-29T00:55:12;21.63;;;5.00;;
3253;SDS011;1639;42.804;23.342;2022-07-29T00:57:40;10.53;;;5.33;;
3253;SDS011;1639;42.804;23.342;2022-07-29T01:00:08;9.73;;;4.77;;
3253;SDS011;1639;42.804;23.342;2022-07-29T01:02:36;10.30;;;5.20;;
3253;SDS011;1639;42.804;23.342;2022-07-29T01:05:02;6.47;;;3.57;;
3253;SDS011;1639;42.804;23.342;2022-07-29T01:07:30;11.60;;;4.13;;
3253;SDS011;1639;42.804;23.342;2022-07-29T01:09:56;6.60;;;3.33;;
3253;SDS011;1639;42.804;23.342;2022-07-29T01:12:24;10.20;;;3.57;;
3253;SDS011;1639;42.804;23.342;2022-07-29T01:14:51;14.37;;;4.23;;
3253;SDS011;1639;42.804;23.342;2022-07-29T01:17:23;6.30;;;3.50;;
3253;SDS011;1639;42.804;23.342;2022-07-29T01:20:03;7.67;;;3.57;;
3253;SDS011;1639;42.804;23.342;2022-07-29T01:31:25;12.50;;;3.00;;
3253;SDS011;1639;42.804;23.342;2022-07-29T01:33:57;7.87;;;3.70;;
3253;SDS011;1639;42.804;23.342;2022-07-29T01:36:33;7.60;;;4.20;;
3253;SDS011;1639;42.804;23.342;2022-07-29T01:39:11;9.53;;;4.70;;
3253;SDS011;1639;42.804;23.342;2022-07-29T01:41:48;6.97;;;3.90;;
3253;SDS011;1639;42.804;23.342;2022-07-29T01:44:19;7.10;;;3.40;;
3253;SDS011;1639;42.804;23.342;2022-07-29T01:46:56;9.37;;;3.87;;
3253;SDS011;1639;42.804;23.342;2022-07-29T01:49:25;7.20;;;3.40;;
3253;SDS011;1639;42.804;23.342;2022-07-29T01:51:57;7.80;;;3.90;;
3253;SDS011;1639;42.804;23.342;2022-07-29T01:54:37;9.30;;;3.50;;
3253;SDS011;1639;42.804;23.342;2022-07-29T01:57:07;13.90;;;4.57;;
3253;SDS011;1639;42.804;23.342;2022-07-29T01:59:36;7.50;;;3.80;;
3253;SDS011;1639;42.804;23.342;2022-07-29T02:02:03;13.23;;;4.97;;
3253;SDS011;1639;42.804;23.342;2022-07-29T02:04:33;8.77;;;4.73;;
3253;SDS011;1639;42.804;23.342;2022-07-29T02:07:02;7.20;;;4.30;;
3253;SDS011;1639;42.804;23.342;2022-07-29T02:09:31;11.20;;;4.00;;
3253;SDS011;1639;42.804;23.342;2022-07-29T02:12:00;10.23;;;4.30;;
3253;SDS011;1639;42.804;23.342;2022-07-29T02:14:29;11.30;;;4.10;;
3253;SDS011;1639;42.804;23.342;2022-07-29T02:16:58;7.83;;;3.53;;
3253;SDS011;1639;42.804;23.342;2022-07-29T02:19:25;11.67;;;4.30;;
3253;SDS011;1639;42.804;23.342;2022-07-29T02:21:53;9.97;;;4.03;;
3253;SDS011;1639;42.804;23.342;2022-07-29T02:24:22;7.10;;;4.20;;
3253;SDS011;1639;42.804;23.342;2022-07-29T02:26:50;9.53;;;4.40;;
3253;SDS011;1639;42.804;23.342;2022-07-29T02:29:18;8.43;;;4.27;;
3253;SDS011;1639;42.804;23.342;2022-07-29T02:31:50;5.73;;;3.20;;
3253;SDS011;1639;42.804;23.342;2022-07-29T02:34:18;10.27;;;4.30;;
3253;SDS011;1639;42.804;23.342;2022-07-29T02:36:45;8.13;;;3.70;;
3253;SDS011;1639;42.804;23.342;2022-07-29T02:39:12;7.50;;;3.70;;
3253;SDS011;1639;42.804;23.342;2022-07-29T02:41:41;8.30;;;3.67;;
3253;SDS011;1639;42.804;23.342;2022-07-29T02:44:10;11.10;;;4.27;;
3253;SDS011;1639;42.804;23.342;2022-07-29T02:46:39;5.30;;;2.80;;
3253;SDS011;1639;42.804;23.342;2022-07-29T02:52:00;7.17;;;4.10;;
3253;SDS011;1639;42.804;23.342;2022-07-29T02:54:31;18.83;;;5.43;;
3253;SDS011;1639;42.804;23.342;2022-07-29T02:57:04;8.43;;;3.90;;
3253;SDS011;1639;42.804;23.342;2022-07-29T02:59:36;27.20;;;3.97;;
3253;SDS011;1639;42.804;23.342;2022-07-29T03:02:03;7.80;;;3.33;;
3253;SDS011;1639;42.804;23.342;2022-07-29T03:04:32;6.80;;;3.63;;
3253;SDS011;1639;42.804;23.342;2022-07-29T03:06:59;10.30;;;4.27;;
3253;SDS011;1639;42.804;23.342;2022-07-29T03:09:26;10.13;;;3.57;;
3253;SDS011;1639;42.804;23.342;2022-07-29T03:11:52;8.57;;;3.40;;
3253;SDS011;1639;42.804;23.342;2022-07-29T03:14:19;11.43;;;3.87;;
3253;SDS011;1639;42.804;23.342;2022-07-29T03:16:45;8.50;;;3.47;;
3253;SDS011;1639;42.804;23.342;2022-07-29T03:19:12;10.10;;;3.90;;
3253;SDS011;1639;42.804;23.342;2022-07-29T03:21:38;11.10;;;3.83;;
3253;SDS011;1639;42.804;23.342;2022-07-29T03:24:04;14.53;;;4.73;;
3253;SDS011;1639;42.804;23.342;2022-07-29T03:26:29;8.57;;;4.03;;
3253;SDS011;1639;42.804;23.342;2022-07-29T03:28:55;10.30;;;4.10;;
3253;SDS011;1639;42.804;23.342;2022-07-29T03:31:20;8.73;;;4.13;;
3253;SDS011;1639;42.804;23.342;2022-07-29T03:33:46;9.07;;;3.53;;
3253;SDS011;1639;42.804;23.342;2022-07-29T03:36:11;7.20;;;4.33;;
3253;SDS011;1639;42.804;23.342;2022-07-29T03:38:36;10.53;;;4.70;;
3253;SDS011;1639;42.804;23.342;2022-07-29T03:41:04;9.37;;;4.10;;
3253;SDS011;1639;42.804;23.342;2022-07-29T03:43:35;10.43;;;4.20;;
3253;SDS011;1639;42.804;23.342;2022-07-29T03:46:03;10.60;;;4.90;;
3253;SDS011;1639;42.804;23.342;2022-07-29T03:48:31;6.70;;;3.13;;
3253;SDS011;1639;42.804;23.342;2022-07-29T03:51:00;10.93;;;4.00;;
3253;SDS011;1639;42.804;23.342;2022-07-29T03:53:25;11.00;;;4.47;;
3253;SDS011;1639;42.804;23.342;2022-07-29T03:55:52;12.20;;;3.57;;
3253;SDS011;1639;42.804;23.342;2022-07-29T03:58:23;8.07;;;2.87;;
3253;SDS011;1639;42.804;23.342;2022-07-29T04:00:51;7.23;;;3.43;;
3253;SDS011;1639;42.804;23.342;2022-07-29T04:03:17;8.00;;;3.47;;
3253;SDS011;1639;42.804;23.342;2022-07-29T04:05:43;9.60;;;3.70;;
3253;SDS011;1639;42.804;23.342;2022-07-29T04:08:08;9.30;;;4.00;;
3253;SDS011;1639;42.804;23.342;2022-07-29T04:10:34;7.67;;;3.33;;
3253;SDS011;1639;42.804;23.342;2022-07-29T04:12:59;10.20;;;4.27;;
3253;SDS011;1639;42.804;23.342;2022-07-29T04:15:25;7.63;;;4.37;;
3253;SDS011;1639;42.804;23.342;2022-07-29T04:17:52;6.70;;;4.00;;
3253;SDS011;1639;42.804;23.342;2022-07-29T04:20:17;9.30;;;4.23;;
3253;SDS011;1639;42.804;23.342;2022-07-29T04:22:43;6.90;;;4.13;;
3253;SDS011;1639;42.804;23.342;2022-07-29T04:25:08;10.30;;;4.07;;
3253;SDS011;1639;42.804;23.342;2022-07-29T04:27:34;9.33;;;4.37;;
3253;SDS011;1639;42.804;23.342;2022-07-29T04:29:59;9.70;;;5.43;;
3253;SDS011;1639;42.804;23.342;2022-07-29T04:32:25;5.57;;;2.90;;
3253;SDS011;1639;42.804;23.342;2022-07-29T04:34:51;7.27;;;4.13;;
3253;SDS011;1639;42.804;23.342;2022-07-29T04:37:16;12.67;;;4.93;;
3253;SDS011;1639;42.804;23.342;2022-07-29T04:39:41;9.90;;;3.80;;
3253;SDS011;1639;42.804;23.342;2022-07-29T04:42:07;7.10;;;3.70;;
3253;SDS011;1639;42.804;23.342;2022-07-29T04:44:32;9.30;;;3.77;;
3253;SDS011;1639;42.804;23.342;2022-07-29T04:46:58;7.43;;;4.07;;
3253;SDS011;1639;42.804;23.342;2022-07-29T04:49:23;7.90;;;3.73;;
3253;SDS011;1639;42.804;23.342;2022-07-29T04:51:49;10.20;;;3.60;;
3253;SDS011;1639;42.804;23.342;2022-07-29T04:54:15;14.87;;;4.43;;
3253;SDS011;1639;42.804;23.342;2022-07-29T04:56:40;10.27;;;3.60;;
3253;SDS011;1639;42.804;23.342;2022-07-29T04:59:06;8.60;;;4.60;;
3253;SDS011;1639;42.804;23.342;2022-07-29T05:01:32;7.83;;;4.30;;
3253;SDS011;1639;42.804;23.342;2022-07-29T05:03:58;9.30;;;4.10;;
3253;SDS011;1639;42.804;23.342;2022-07-29T05:06:23;8.73;;;3.97;;
3253;SDS011;1639;42.804;23.342;2022-07-29T05:08:48;12.50;;;3.97;;
3253;SDS011;1639;42.804;23.342;2022-07-29T05:11:14;7.60;;;4.17;;
3253;SDS011;1639;42.804;23.342;2022-07-29T05:13:39;9.70;;;3.87;;
3253;SDS011;1639;42.804;23.342;2022-07-29T05:16:04;7.50;;;3.87;;
3253;SDS011;1639;42.804;23.342;2022-07-29T05:18:30;13.33;;;4.07;;
3253;SDS011;1639;42.804;23.342;2022-07-29T05:20:55;9.57;;;4.50;;
3253;SDS011;1639;42.804;23.342;2022-07-29T05:23:21;10.17;;;5.20;;
3253;SDS011;1639;42.804;23.342;2022-07-29T05:25:46;10.90;;;4.43;;
3253;SDS011;1639;42.804;23.342;2022-07-29T05:28:12;10.10;;;4.53;;
3253;SDS011;1639;42.804;23.342;2022-07-29T05:30:37;8.53;;;5.13;;
3253;SDS011;1639;42.804;23.342;2022-07-29T05:33:03;12.43;;;5.83;;
3253;SDS011;1639;42.804;23.342;2022-07-29T05:35:28;21.03;;;6.40;;
3253;SDS011;1639;42.804;23.342;2022-07-29T05:37:54;10.43;;;4.67;;
3253;SDS011;1639;42.804;23.342;2022-07-29T05:40:19;7.37;;;4.40;;
3253;SDS011;1639;42.804;23.342;2022-07-29T05:42:45;9.13;;;3.73;;
3253;SDS011;1639;42.804;23.342;2022-07-29T05:45:10;7.97;;;3.80;;
3253;SDS011;1639;42.804;23.342;2022-07-29T05:47:36;9.63;;;4.20;;
3253;SDS011;1639;42.804;23.342;2022-07-29T05:50:01;13.87;;;4.67;;
3253;SDS011;1639;42.804;23.342;2022-07-29T05:52:27;7.83;;;5.00;;
3253;SDS011;1639;42.804;23.342;2022-07-29T05:54:53;9.60;;;5.57;;
3253;SDS011;1639;42.804;23.342;2022-07-29T05:57:19;9.83;;;4.43;;
3253;SDS011;1639;42.804;23.342;2022-07-29T05:59:46;12.40;;;5.30;;
3253;SDS011;1639;42.804;23.342;2022-07-29T06:02:13;8.53;;;4.67;;
3253;SDS011;1639;42.804;23.342;2022-07-29T06:04:38;10.20;;;5.30;;
3253;SDS011;1639;42.804;23.342;2022-07-29T06:07:04;9.83;;;5.30;;
3253;SDS011;1639;42.804;23.342;2022-07-29T06:09:29;7.90;;;3.80;;
3253;SDS011;1639;42.804;23.342;2022-07-29T06:11:55;8.63;;;4.67;;
3253;SDS011;1639;42.804;23.342;2022-07-29T06:14:20;9.37;;;5.37;;
3253;SDS011;1639;42.804;23.342;2022-07-29T06:16:46;14.13;;;5.57;;
3253;SDS011;1639;42.804;23.342;2022-07-29T06:19:11;11.70;;;6.97;;
3253;SDS011;1639;42.804;23.342;2022-07-29T06:21:40;9.60;;;6.20;;
3253;SDS011;1639;42.804;23.342;2022-07-29T06:24:07;10.07;;;5.63;;
3253;SDS011;1639;42.804;23.342;2022-07-29T06:26:32;14.70;;;6.07;;
3253;SDS011;1639;42.804;23.342;2022-07-29T06:28:58;10.20;;;6.03;;
3253;SDS011;1639;42.804;23.342;2022-07-29T06:31:23;12.03;;;6.40;;
3253;SDS011;1639;42.804;23.342;2022-07-29T06:33:49;8.07;;;5.20;;
3253;SDS011;1639;42.804;23.342;2022-07-29T06:36:14;10.27;;;6.30;;
3253;SDS011;1639;42.804;23.342;2022-07-29T06:38:40;11.70;;;4.70;;
3253;SDS011;1639;42.804;23.342;2022-07-29T06:41:05;11.63;;;5.80;;
3253;SDS011;1639;42.804;23.342;2022-07-29T06:43:38;7.67;;;3.30;;
3253;SDS011;1639;42.804;23.342;2022-07-29T06:46:10;9.80;;;4.73;;
3253;SDS011;1639;42.804;23.342;2022-07-29T06:48:37;16.73;;;5.80;;
3253;SDS011;1639;42.804;23.342;2022-07-29T06:51:04;11.30;;;5.67;;
3253;SDS011;1639;42.804;23.342;2022-07-29T06:53:30;12.70;;;4.00;;
3253;SDS011;1639;42.804;23.342;2022-07-29T06:55:57;7.47;;;3.63;;
3253;SDS011;1639;42.804;23.342;2022-07-29T06:58:24;5.77;;;3.43;;
3253;SDS011;1639;42.804;23.342;2022-07-29T07:00:50;5.23;;;2.67;;
3253;SDS011;1639;42.804;23.342;2022-07-29T07:03:16;6.30;;;2.60;;
3253;SDS011;1639;42.804;23.342;2022-07-29T07:05:42;5.93;;;2.50;;
3253;SDS011;1639;42.804;23.342;2022-07-29T07:08:09;7.80;;;2.80;;
3253;SDS011;1639;42.804;23.342;2022-07-29T07:10:35;7.57;;;2.90;;
3253;SDS011;1639;42.804;23.342;2022-07-29T07:13:02;5.17;;;2.13;;
3253;SDS011;1639;42.804;23.342;2022-07-29T07:15:35;6.40;;;2.30;;
3253;SDS011;1639;42.804;23.342;2022-07-29T07:18:06;8.27;;;3.07;;
3253;SDS011;1639;42.804;23.342;2022-07-29T07:20:32;5.27;;;2.57;;
3253;SDS011;1639;42.804;23.342;2022-07-29T07:22:58;4.90;;;1.83;;
3253;SDS011;1639;42.804;23.342;2022-07-29T07:25:24;4.60;;;1.80;;
3253;SDS011;1639;42.804;23.342;2022-07-29T07:27:49;6.50;;;3.07;;
3253;SDS011;1639;42.804;23.342;2022-07-29T07:30:15;6.30;;;2.40;;
3253;SDS011;1639;42.804;23.342;2022-07-29T07:32:40;6.53;;;2.77;;
3253;SDS011;1639;42.804;23.342;2022-07-29T07:35:06;5.40;;;2.70;;
3253;SDS011;1639;42.804;23.342;2022-07-29T07:37:33;8.43;;;2.80;;
3253;SDS011;1639;42.804;23.342;2022-07-29T07:39:59;6.60;;;3.03;;
3253;SDS011;1639;42.804;23.342;2022-07-29T07:42:25;5.63;;;2.10;;
3253;SDS011;1639;42.804;23.342;2022-07-29T07:44:51;6.30;;;2.53;;
3253;SDS011;1639;42.804;23.342;2022-07-29T07:47:16;10.63;;;2.87;;
3253;SDS011;1639;42.804;23.342;2022-07-29T07:49:47;13.17;;;3.03;;
3253;SDS011;1639;42.804;23.342;2022-07-29T07:52:14;6.03;;;2.97;;
3253;SDS011;1639;42.804;23.342;2022-07-29T07:54:41;7.30;;;2.33;;
3253;SDS011;1639;42.804;23.342;2022-07-29T07:57:08;5.50;;;2.57;;
3253;SDS011;1639;42.804;23.342;2022-07-29T07:59:33;5.20;;;2.50;;
3253;SDS011;1639;42.804;23.342;2022-07-29T08:01:59;6.37;;;2.93;;
3253;SDS011;1639;42.804;23.342;2022-07-29T08:04:25;5.50;;;2.40;;
3253;SDS011;1639;42.804;23.342;2022-07-29T08:06:52;6.70;;;3.10;;
3253;SDS011;1639;42.804;23.342;2022-07-29T08:09:19;5.57;;;2.70;;
3253;SDS011;1639;42.804;23.342;2022-07-29T08:11:45;7.43;;;2.60;;
3253;SDS011;1639;42.804;23.342;2022-07-29T08:14:11;5.50;;;2.23;;
3253;SDS011;1639;42.804;23.342;2022-07-29T08:16:36;7.33;;;2.67;;
3253;SDS011;1639;42.804;23.342;2022-07-29T08:19:01;6.77;;;3.00;;
3253;SDS011;1639;42.804;23.342;2022-07-29T08:21:27;7.63;;;3.03;;
3253;SDS011;1639;42.804;23.342;2022-07-29T08:23:52;5.50;;;2.70;;
3253;SDS011;1639;42.804;23.342;2022-07-29T08:26:20;4.83;;;2.50;;
3253;SDS011;1639;42.804;23.342;2022-07-29T08:28:47;5.43;;;2.67;;
3253;SDS011;1639;42.804;23.342;2022-07-29T08:31:15;9.03;;;3.53;;
3253;SDS011;1639;42.804;23.342;2022-07-29T08:33:41;5.57;;;2.37;;
3253;SDS011;1639;42.804;23.342;2022-07-29T08:36:07;6.70;;;2.90;;
3253;SDS011;1639;42.804;23.342;2022-07-29T08:38:33;8.03;;;3.10;;
3253;SDS011;1639;42.804;23.342;2022-07-29T08:41:02;5.43;;;2.23;;
3253;SDS011;1639;42.804;23.342;2022-07-29T08:43:27;7.83;;;2.73;;
3253;SDS011;1639;42.804;23.342;2022-07-29T08:45:53;5.87;;;2.83;;
3253;SDS011;1639;42.804;23.342;2022-07-29T08:48:20;5.30;;;2.33;;
3253;SDS011;1639;42.804;23.342;2022-07-29T08:50:48;6.33;;;2.70;;
3253;SDS011;1639;42.804;23.342;2022-07-29T08:53:17;6.23;;;2.90;;
3253;SDS011;1639;42.804;23.342;2022-07-29T08:55:44;5.20;;;2.27;;
3253;SDS011;1639;42.804;23.342;2022-07-29T08:58:14;5.80;;;2.57;;
3253;SDS011;1639;42.804;23.342;2022-07-29T09:00:41;7.13;;;2.50;;
3253;SDS011;1639;42.804;23.342;2022-07-29T09:03:15;5.73;;;2.83;;
3253;SDS011;1639;42.804;23.342;2022-07-29T09:05:47;8.27;;;3.83;;
3253;SDS011;1639;42.804;23.342;2022-07-29T09:08:13;4.93;;;2.43;;
3253;SDS011;1639;42.804;23.342;2022-07-29T09:10:39;5.20;;;2.80;;
3253;SDS011;1639;42.804;23.342;2022-07-29T09:13:05;4.97;;;2.10;;
3253;SDS011;1639;42.804;23.342;2022-07-29T09:15:31;5.87;;;2.40;;
3253;SDS011;1639;42.804;23.342;2022-07-29T09:17:56;6.37;;;2.97;;
3253;SDS011;1639;42.804;23.342;2022-07-29T09:20:23;5.73;;;2.37;;
3253;SDS011;1639;42.804;23.342;2022-07-29T09:22:50;6.53;;;2.67;;
3253;SDS011;1639;42.804;23.342;2022-07-29T09:28:05;5.23;;;2.70;;
3253;SDS011;1639;42.804;23.342;2022-07-29T09:30:35;4.83;;;2.10;;
3253;SDS011;1639;42.804;23.342;2022-07-29T09:33:01;4.63;;;2.10;;
3253;SDS011;1639;42.804;23.342;2022-07-29T09:35:28;6.90;;;2.60;;
3253;SDS011;1639;42.804;23.342;2022-07-29T09:37:54;5.60;;;2.90;;
3253;SDS011;1639;42.804;23.342;2022-07-29T09:40:21;5.10;;;2.60;;
3253;SDS011;1639;42.804;23.342;2022-07-29T09:42:48;5.50;;;2.27;;
3253;SDS011;1639;42.804;23.342;2022-07-29T09:45:31;6.97;;;3.20;;
3253;SDS011;1639;42.804;23.342;2022-07-29T09:47:58;5.20;;;2.70;;
3253;SDS011;1639;42.804;23.342;2022-07-29T09:53:03;6.43;;;2.90;;
3253;SDS011;1639;42.804;23.342;2022-07-29T09:55:29;5.60;;;2.67;;
3253;SDS011;1639;42.804;23.342;2022-07-29T09:57:54;5.20;;;2.53;;
3253;SDS011;1639;42.804;23.342;2022-07-29T10:00:41;5.03;;;2.33;;
3253;SDS011;1639;42.804;23.342;2022-07-29T10:03:07;5.50;;;2.63;;
3253;SDS011;1639;42.804;23.342;2022-07-29T10:05:32;6.20;;;2.40;;
3253;SDS011;1639;42.804;23.342;2022-07-29T10:07:58;6.50;;;2.50;;
3253;SDS011;1639;42.804;23.342;2022-07-29T10:10:24;5.27;;;2.53;;
3253;SDS011;1639;42.804;23.342;2022-07-29T10:15:21;4.70;;;1.93;;
3253;SDS011;1639;42.804;23.342;2022-07-29T10:17:48;5.10;;;2.60;;
3253;SDS011;1639;42.804;23.342;2022-07-29T10:20:14;7.93;;;2.97;;
3253;SDS011;1639;42.804;23.342;2022-07-29T10:22:41;5.60;;;2.40;;
3253;SDS011;1639;42.804;23.342;2022-07-29T10:25:07;5.13;;;2.40;;
3253;SDS011;1639;42.804;23.342;2022-07-29T10:27:34;4.63;;;1.80;;
3253;SDS011;1639;42.804;23.342;2022-07-29T10:30:01;5.20;;;2.60;;
3253;SDS011;1639;42.804;23.342;2022-07-29T10:40:18;5.00;;;2.40;;
3253;SDS011;1639;42.804;23.342;2022-07-29T10:43:18;5.10;;;2.20;;
3253;SDS011;1639;42.804;23.342;2022-07-29T10:45:48;5.40;;;2.40;;
3253;SDS011;1639;42.804;23.342;2022-07-29T10:48:19;5.03;;;2.77;;
3253;SDS011;1639;42.804;23.342;2022-07-29T10:50:58;6.50;;;2.40;;
3253;SDS011;1639;42.804;23.342;2022-07-29T10:56:24;6.13;;;2.67;;
3253;SDS011;1639;42.804;23.342;2022-07-29T11:01:48;5.23;;;2.53;;
3253;SDS011;1639;42.804;23.342;2022-07-29T11:04:58;6.50;;;2.63;;
3253;SDS011;1639;42.804;23.342;2022-07-29T11:07:08;4.73;;;2.03;;
3253;SDS011;1639;42.804;23.342;2022-07-29T11:09:34;4.80;;;2.53;;
3253;SDS011;1639;42.804;23.342;2022-07-29T11:11:59;5.30;;;3.00;;
3253;SDS011;1639;42.804;23.342;2022-07-29T11:17:22;4.97;;;2.63;;
3253;SDS011;1639;42.804;23.342;2022-07-29T11:19:48;7.47;;;3.40;;
3253;SDS011;1639;42.804;23.342;2022-07-29T11:22:31;9.13;;;2.70;;
3253;SDS011;1639;42.804;23.342;2022-07-29T11:25:17;5.00;;;2.53;;
3253;SDS011;1639;42.804;23.342;2022-07-29T11:27:46;5.60;;;2.67;;
3253;SDS011;1639;42.804;23.342;2022-07-29T11:30:12;6.43;;;2.60;;
3253;SDS011;1639;42.804;23.342;2022-07-29T11:32:39;5.30;;;3.00;;
3253;SDS011;1639;42.804;23.342;2022-07-29T11:35:21;4.70;;;2.50;;
3253;SDS011;1639;42.804;23.342;2022-07-29T11:43:45;7.83;;;2.80;;
3253;SDS011;1639;42.804;23.342;2022-07-29T11:49:20;5.60;;;2.63;;
3253;SDS011;1639;42.804;23.342;2022-07-29T11:51:54;5.27;;;2.73;;
3253;SDS011;1639;42.804;23.342;2022-07-29T11:54:26;8.23;;;3.23;;
3253;SDS011;1639;42.804;23.342;2022-07-29T11:56:56;5.80;;;2.83;;
3253;SDS011;1639;42.804;23.342;2022-07-29T11:59:22;7.33;;;3.53;;
3253;SDS011;1639;42.804;23.342;2022-07-29T12:01:53;6.30;;;2.83;;
3253;SDS011;1639;42.804;23.342;2022-07-29T12:04:22;5.90;;;3.30;;
3253;SDS011;1639;42.804;23.342;2022-07-29T12:06:51;7.27;;;3.03;;
3253;SDS011;1639;42.804;23.342;2022-07-29T12:09:18;6.00;;;2.80;;
3253;SDS011;1639;42.804;23.342;2022-07-29T12:11:44;6.83;;;2.93;;
3253;SDS011;1639;42.804;23.342;2022-07-29T12:14:29;7.17;;;3.50;;
3253;SDS011;1639;42.804;23.342;2022-07-29T12:16:56;8.20;;;3.27;;
3253;SDS011;1639;42.804;23.342;2022-07-29T12:19:22;7.07;;;3.93;;
3253;SDS011;1639;42.804;23.342;2022-07-29T12:21:52;7.13;;;2.97;;
3253;SDS011;1639;42.804;23.342;2022-07-29T12:24:19;7.10;;;2.90;;
3253;SDS011;1639;42.804;23.342;2022-07-29T12:26:49;5.67;;;2.80;;
3253;SDS011;1639;42.804;23.342;2022-07-29T12:29:19;6.90;;;3.43;;
3253;SDS011;1639;42.804;23.342;2022-07-29T12:31:44;7.03;;;3.70;;
3253;SDS011;1639;42.804;23.342;2022-07-29T12:34:11;7.23;;;2.90;;
3253;SDS011;1639;42.804;23.342;2022-07-29T12:36:39;6.77;;;3.40;;
3253;SDS011;1639;42.804;23.342;2022-07-29T12:39:06;6.97;;;3.10;;
3253;SDS011;1639;42.804;23.342;2022-07-29T12:41:34;5.20;;;2.90;;
3253;SDS011;1639;42.804;23.342;2022-07-29T12:43:59;6.77;;;3.00;;
3253;SDS011;1639;42.804;23.342;2022-07-29T12:46:25;5.73;;;3.17;;
3253;SDS011;1639;42.804;23.342;2022-07-29T12:48:51;5.40;;;2.90;;
3253;SDS011;1639;42.804;23.342;2022-07-29T12:51:31;5.47;;;3.07;;
3253;SDS011;1639;42.804;23.342;2022-07-29T12:54:02;7.13;;;3.87;;
3253;SDS011;1639;42.804;23.342;2022-07-29T12:56:28;5.87;;;3.20;;
3253;SDS011;1639;42.804;23.342;2022-07-29T12:58:53;6.90;;;3.67;;
3253;SDS011;1639;42.804;23.342;2022-07-29T13:01:19;6.07;;;2.97;;
3253;SDS011;1639;42.804;23.342;2022-07-29T13:03:46;6.00;;;3.00;;
3253;SDS011;1639;42.804;23.342;2022-07-29T13:11:42;7.53;;;3.30;;
3253;SDS011;1639;42.804;23.342;2022-07-29T13:17:05;5.73;;;2.73;;
3253;SDS011;1639;42.804;23.342;2022-07-29T13:22:14;9.27;;;2.90;;
3253;SDS011;1639;42.804;23.342;2022-07-29T13:25:00;8.33;;;3.17;;
3253;SDS011;1639;42.804;23.342;2022-07-29T13:27:28;6.27;;;3.70;;
3253;SDS011;1639;42.804;23.342;2022-07-29T13:29:55;5.17;;;2.60;;
3253;SDS011;1639;42.804;23.342;2022-07-29T13:32:23;7.67;;;3.93;;
3253;SDS011;1639;42.804;23.342;2022-07-29T13:34:50;6.13;;;3.07;;
3253;SDS011;1639;42.804;23.342;2022-07-29T13:37:15;5.67;;;3.37;;
3253;SDS011;1639;42.804;23.342;2022-07-29T13:39:42;5.30;;;2.90;;
3253;SDS011;1639;42.804;23.342;2022-07-29T13:42:08;5.50;;;2.70;;
3253;SDS011;1639;42.804;23.342;2022-07-29T13:44:34;6.50;;;2.93;;
3253;SDS011;1639;42.804;23.342;2022-07-29T13:47:00;6.33;;;2.90;;
3253;SDS011;1639;42.804;23.342;2022-07-29T13:49:27;8.87;;;4.00;;
3253;SDS011;1639;42.804;23.342;2022-07-29T13:51:52;6.70;;;3.73;;
3253;SDS011;1639;42.804;23.342;2022-07-29T13:54:18;5.60;;;2.70;;
3253;SDS011;1639;42.804;23.342;2022-07-29T13:56:44;8.23;;;3.63;;
3253;SDS011;1639;42.804;23.342;2022-07-29T13:59:10;5.63;;;3.10;;
3253;SDS011;1639;42.804;23.342;2022-07-29T14:01:35;6.73;;;3.30;;
3253;SDS011;1639;42.804;23.342;2022-07-29T14:04:01;7.00;;;3.03;;
3253;SDS011;1639;42.804;23.342;2022-07-29T14:06:27;6.40;;;3.70;;
3253;SDS011;1639;42.804;23.342;2022-07-29T14:08:52;5.93;;;2.67;;
3253;SDS011;1639;42.804;23.342;2022-07-29T14:11:18;7.93;;;3.93;;
3253;SDS011;1639;42.804;23.342;2022-07-29T14:13:43;5.53;;;3.23;;
3253;SDS011;1639;42.804;23.342;2022-07-29T14:16:09;5.90;;;4.00;;
3253;SDS011;1639;42.804;23.342;2022-07-29T14:18:34;6.30;;;3.00;;
3253;SDS011;1639;42.804;23.342;2022-07-29T14:20:59;7.30;;;3.53;;
3253;SDS011;1639;42.804;23.342;2022-07-29T14:23:25;6.20;;;3.17;;
3253;SDS011;1639;42.804;23.342;2022-07-29T14:25:51;6.60;;;3.80;;
3253;SDS011;1639;42.804;23.342;2022-07-29T14:28:16;6.27;;;3.60;;
3253;SDS011;1639;42.804;23.342;2022-07-29T14:30:42;6.50;;;3.50;;
3253;SDS011;1639;42.804;23.342;2022-07-29T14:33:08;12.90;;;3.03;;
3253;SDS011;1639;42.804;23.342;2022-07-29T14:35:33;5.77;;;3.10;;
3253;SDS011;1639;42.804;23.342;2022-07-29T14:37:58;6.00;;;3.47;;
3253;SDS011;1639;42.804;23.342;2022-07-29T14:40:24;6.37;;;3.10;;
3253;SDS011;1639;42.804;23.342;2022-07-29T14:42:50;7.17;;;4.03;;
3253;SDS011;1639;42.804;23.342;2022-07-29T14:45:16;5.73;;;2.70;;
3253;SDS011;1639;42.804;23.342;2022-07-29T14:47:41;7.20;;;3.87;;
3253;SDS011;1639;42.804;23.342;2022-07-29T14:50:07;6.97;;;3.57;;
3253;SDS011;1639;42.804;23.342;2022-07-29T14:52:33;7.23;;;3.53;;
3253;SDS011;1639;42.804;23.342;2022-07-29T14:54:59;8.07;;;3.87;;
3253;SDS011;1639;42.804;23.342;2022-07-29T14:57:25;6.53;;;2.97;;
3253;SDS011;1639;42.804;23.342;2022-07-29T14:59:50;5.27;;;2.70;;
3253;SDS011;1639;42.804;23.342;2022-07-29T15:02:16;7.13;;;3.43;;
3253;SDS011;1639;42.804;23.342;2022-07-29T15:04:41;7.67;;;3.47;;
3253;SDS011;1639;42.804;23.342;2022-07-29T15:07:07;6.77;;;3.23;;
3253;SDS011;1639;42.804;23.342;2022-07-29T15:09:33;6.63;;;3.30;;
3253;SDS011;1639;42.804;23.342;2022-07-29T15:11:58;6.17;;;3.50;;
3253;SDS011;1639;42.804;23.342;2022-07-29T15:14:24;7.73;;;3.37;;
3253;SDS011;1639;42.804;23.342;2022-07-29T15:16:49;6.27;;;4.13;;
3253;SDS011;1639;42.804;23.342;2022-07-29T15:19:15;6.07;;;3.43;;
3253;SDS011;1639;42.804;23.342;2022-07-29T15:21:40;6.93;;;3.63;;
3253;SDS011;1639;42.804;23.342;2022-07-29T15:24:05;5.20;;;2.90;;
3253;SDS011;1639;42.804;23.342;2022-07-29T15:26:32;6.13;;;3.30;;
3253;SDS011;1639;42.804;23.342;2022-07-29T15:28:57;8.10;;;2.80;;
3253;SDS011;1639;42.804;23.342;2022-07-29T15:31:23;7.20;;;2.83;;
3253;SDS011;1639;42.804;23.342;2022-07-29T15:33:48;5.40;;;2.67;;
3253;SDS011;1639;42.804;23.342;2022-07-29T15:36:14;6.70;;;3.10;;
3253;SDS011;1639;42.804;23.342;2022-07-29T15:38:40;6.20;;;2.80;;
3253;SDS011;1639;42.804;23.342;2022-07-29T15:41:06;7.43;;;3.30;;
3253;SDS011;1639;42.804;23.342;2022-07-29T15:43:32;6.60;;;3.07;;
3253;SDS011;1639;42.804;23.342;2022-07-29T15:45:59;6.63;;;3.47;;
3253;SDS011;1639;42.804;23.342;2022-07-29T15:48:43;8.23;;;3.37;;
3253;SDS011;1639;42.804;23.342;2022-07-29T15:51:09;6.83;;;2.87;;
3253;SDS011;1639;42.804;23.342;2022-07-29T15:53:34;6.90;;;2.80;;
3253;SDS011;1639;42.804;23.342;2022-07-29T15:56:00;6.00;;;2.50;;